createdAt,value
2023-01-18T00:01:14.455Z,-0.47
2023-01-18T00:04:17.233Z,-0.47
2023-01-18T00:07:18.536Z,-0.47
2023-01-18T00:10:22.943Z,-0.52
2023-01-18T00:13:24.243Z,-0.55
2023-01-18T00:16:28.001Z,-0.55
2023-01-18T00:19:29.320Z,-0.53
2023-01-18T00:22:31.986Z,-0.52
2023-01-18T00:25:34.551Z,-0.53
2023-01-18T00:28:36.904Z,-0.52
2023-01-18T00:31:40.873Z,-0.54
2023-01-18T00:34:42.218Z,-0.58
2023-01-18T00:37:45.655Z,-0.58
2023-01-18T00:40:48.136Z,-0.58
2023-01-18T00:43:49.617Z,-0.66
2023-01-18T00:50:14.354Z,-0.63
2023-01-18T00:53:15.619Z,-0.62
2023-01-18T00:56:20.238Z,-0.65
2023-01-18T00:59:21.514Z,-0.61
2023-01-18T01:02:25.230Z,-0.65
2023-01-18T01:05:46.052Z,-0.63
2023-01-18T01:08:54.519Z,-0.62
2023-01-18T01:12:15.557Z,-0.59
2023-01-18T01:15:36.156Z,-0.58
2023-01-18T01:18:57.550Z,-0.60
2023-01-18T01:22:18.151Z,-0.58
2023-01-18T01:25:37.989Z,-0.62
2023-01-18T01:28:42.546Z,-0.58
2023-01-18T01:31:43.798Z,-0.61
2023-01-18T01:34:46.973Z,-0.61
2023-01-18T01:37:48.219Z,-0.61
2023-01-18T01:40:57.999Z,-0.60
2023-01-18T01:44:01.404Z,-0.64
2023-01-18T01:47:08.658Z,-0.60
2023-01-18T01:50:19.395Z,-0.58
2023-01-18T01:53:20.759Z,-0.59
2023-01-18T01:56:23.360Z,-0.62
2023-01-18T01:59:24.806Z,-0.58
2023-01-18T02:02:28.419Z,-0.56
2023-01-18T02:05:34.789Z,-0.58
2023-01-18T02:08:36.038Z,-0.54
2023-01-18T02:11:38.981Z,-0.58
2023-01-18T02:14:42.083Z,-0.53
2023-01-18T02:18:06.632Z,-0.53
2023-01-18T02:21:16.644Z,-0.52
2023-01-18T02:24:47.604Z,-0.52
2023-01-18T02:27:55.496Z,-0.52
2023-01-18T02:31:05.484Z,-0.47
2023-01-18T02:34:13.678Z,-0.48
2023-01-18T02:37:26.177Z,-0.43
2023-01-18T02:40:33.881Z,-0.47
2023-01-18T02:43:55.217Z,-0.43
2023-01-18T02:46:57.303Z,-0.46
2023-01-18T02:50:00.084Z,-0.50
2023-01-18T02:53:02.720Z,-0.48
2023-01-18T02:56:10.952Z,-0.49
2023-01-18T02:59:17.107Z,-0.46
2023-01-18T03:02:23.763Z,-0.45
2023-01-18T03:05:28.805Z,-0.44
2023-01-18T03:08:36.723Z,-0.39
2023-01-18T03:11:45.068Z,-0.42
2023-01-18T03:14:57.984Z,-0.39
2023-01-18T03:18:06.815Z,-0.41
2023-01-18T03:21:09.379Z,-0.42
2023-01-18T03:24:12.969Z,-0.39
2023-01-18T03:27:32.938Z,-0.36
2023-01-18T03:30:54.583Z,-0.42
2023-01-18T03:34:02.051Z,-0.41
2023-01-18T03:37:09.195Z,-0.39
2023-01-18T03:40:15.031Z,-0.37
2023-01-18T03:43:23.240Z,-0.39
2023-01-18T03:46:30.317Z,-0.38
2023-01-18T03:49:34.086Z,-0.36
2023-01-18T03:52:41.539Z,-0.30
2023-01-18T03:55:46.782Z,-0.28
2023-01-18T03:58:52.792Z,-0.29
2023-01-18T04:01:55.328Z,-0.27
2023-01-18T04:05:02.804Z,-0.27
2023-01-18T04:11:26.879Z,-0.27
2023-01-18T04:14:29.415Z,-0.29
2023-01-18T04:17:30.729Z,-0.33
2023-01-18T04:20:34.315Z,-0.30
2023-01-18T04:26:57.341Z,-0.21
2023-01-18T04:29:59.925Z,-0.24
2023-01-18T04:33:01.572Z,-0.23
2023-01-18T04:36:05.487Z,-0.27
2023-01-18T04:39:07.027Z,-0.25
2023-01-18T04:42:08.292Z,-0.23
2023-01-18T04:45:13.277Z,-0.21
2023-01-18T04:48:14.555Z,-0.22
2023-01-18T04:51:16.534Z,-0.20
2023-01-18T04:54:18.314Z,-0.19
2023-01-18T04:57:19.630Z,-0.16
2023-01-18T05:00:23.189Z,-0.09
2023-01-18T05:03:24.600Z,-0.08
2023-01-18T05:06:27.866Z,-0.10
2023-01-18T05:09:30.448Z,-0.18
2023-01-18T05:12:31.730Z,-0.20
2023-01-18T05:15:34.130Z,-0.29
2023-01-18T05:18:35.472Z,-0.30
2023-01-18T05:21:37.973Z,-0.27
2023-01-18T05:28:01.493Z,-0.20
2023-01-18T05:31:02.796Z,-0.20
2023-01-18T05:34:04.122Z,-0.17
2023-01-18T05:37:06.369Z,-0.09
2023-01-18T05:40:09.529Z,-0.10
2023-01-18T05:43:11.493Z,-0.06
2023-01-18T05:46:12.903Z,-0.03
2023-01-18T05:49:14.591Z,-0.03
2023-01-18T05:52:18.165Z,0.00
2023-01-18T05:55:19.461Z,0.03
2023-01-18T05:58:22.031Z,0.03
2023-01-18T06:01:23.681Z,0.05
2023-01-18T06:04:26.276Z,0.05
2023-01-18T06:07:28.263Z,0.07
2023-01-18T06:13:50.855Z,0.03
2023-01-18T06:16:52.474Z,0.04
2023-01-18T06:19:54.990Z,0.04
2023-01-18T06:22:59.407Z,0.07
2023-01-18T06:26:02.243Z,0.10
2023-01-18T06:29:03.578Z,0.08
2023-01-18T06:32:06.354Z,0.07
2023-01-18T06:35:08.458Z,0.08
2023-01-18T06:38:12.107Z,0.11
2023-01-18T06:41:16.521Z,0.20
2023-01-18T06:44:19.048Z,0.21
2023-01-18T06:47:20.377Z,0.25
2023-01-18T06:50:23.367Z,0.20
2023-01-18T06:53:28.091Z,0.24
2023-01-18T06:56:29.716Z,0.25
2023-01-18T06:59:31.075Z,0.24
2023-01-18T07:02:34.359Z,0.26
2023-01-18T07:05:35.799Z,0.28
2023-01-18T07:08:40.630Z,0.26
2023-01-18T07:11:42.645Z,0.27
2023-01-18T07:14:45.254Z,0.28
2023-01-18T07:17:47.091Z,0.25
2023-01-18T07:20:57.794Z,0.21
2023-01-18T07:23:59.774Z,0.21
2023-01-18T07:27:02.493Z,0.25
2023-01-18T07:30:04.796Z,0.44
2023-01-18T07:33:07.130Z,0.53
2023-01-18T07:36:11.288Z,0.48
2023-01-18T07:39:13.283Z,0.52
2023-01-18T07:42:14.801Z,0.49
2023-01-18T07:45:17.707Z,0.46
2023-01-18T07:48:21.184Z,0.49
2023-01-18T07:51:23.907Z,0.47
2023-01-18T07:54:25.912Z,0.54
2023-01-18T07:57:27.996Z,0.58
2023-01-18T08:00:30.531Z,0.57
2023-01-18T08:03:31.888Z,0.61
2023-01-18T08:09:54.754Z,0.71
2023-01-18T08:12:57.122Z,0.73
2023-01-18T08:16:00.595Z,0.82
2023-01-18T08:19:03.233Z,0.87
2023-01-18T08:22:04.580Z,0.91
2023-01-18T08:25:08.720Z,0.98
2023-01-18T08:28:11.087Z,1.06
2023-01-18T08:31:16.433Z,1.13
2023-01-18T08:34:17.959Z,1.20
2023-01-18T08:37:20.484Z,1.26
2023-01-18T08:40:22.948Z,1.32
2023-01-18T08:43:24.500Z,1.43
2023-01-18T08:46:27.280Z,1.54
2023-01-18T08:49:28.621Z,1.65
2023-01-18T08:52:31.117Z,1.72
2023-01-18T08:55:35.757Z,1.83
2023-01-18T08:58:38.272Z,1.87
2023-01-18T09:01:39.825Z,1.84
2023-01-18T09:04:42.810Z,1.89
2023-01-18T09:07:45.885Z,1.90
2023-01-18T09:10:47.835Z,1.90
2023-01-18T09:14:02.275Z,1.98
2023-01-18T09:17:05.248Z,2.17
2023-01-18T09:20:08.992Z,2.23
2023-01-18T09:23:10.740Z,2.12
2023-01-18T09:26:16.484Z,2.12
2023-01-18T09:29:19.055Z,2.12
2023-01-18T09:32:20.674Z,2.14
2023-01-18T09:35:22.026Z,2.18
2023-01-18T09:38:24.611Z,2.10
2023-01-18T09:41:33.199Z,2.08
2023-01-18T09:44:39.029Z,2.21
2023-01-18T09:47:45.892Z,2.18
2023-01-18T09:50:47.214Z,2.22
2023-01-18T09:53:58.243Z,2.22
2023-01-18T09:57:08.024Z,2.21
2023-01-18T10:00:19.528Z,2.21
2023-01-18T10:03:25.527Z,2.15
2023-01-18T10:06:30.607Z,2.26
2023-01-18T10:09:38.494Z,2.32
2023-01-18T10:12:45.894Z,2.35
2023-01-18T10:15:49.993Z,2.41
2023-01-18T10:18:54.860Z,2.48
2023-01-18T10:22:06.509Z,2.56
2023-01-18T10:25:15.425Z,2.50
2023-01-18T10:28:32.310Z,2.55
2023-01-18T10:31:45.093Z,2.48
2023-01-18T10:34:50.723Z,2.47
2023-01-18T10:37:55.747Z,2.60
2023-01-18T10:40:59.840Z,2.55
2023-01-18T10:44:02.126Z,2.64
2023-01-18T10:47:03.539Z,2.67
2023-01-18T10:50:12.605Z,2.79
2023-01-18T10:53:26.030Z,2.87
2023-01-18T10:56:28.273Z,2.86
2023-01-18T10:59:37.630Z,2.85
2023-01-18T11:02:43.339Z,2.83
2023-01-18T11:05:45.785Z,2.94
2023-01-18T11:08:49.655Z,2.89
2023-01-18T11:12:10.475Z,2.94
2023-01-18T11:15:29.109Z,2.85
2023-01-18T11:18:30.573Z,2.86
2023-01-18T11:21:46.062Z,2.97
2023-01-18T11:24:52.644Z,2.94
2023-01-18T11:28:02.915Z,2.90
2023-01-18T11:31:11.113Z,2.81
2023-01-18T11:34:23.455Z,2.86
2023-01-18T11:37:30.580Z,2.89
2023-01-18T11:40:35.210Z,2.90
2023-01-18T11:43:40.081Z,2.88
2023-01-18T11:46:44.658Z,2.94
2023-01-18T11:50:01.006Z,2.94
2023-01-18T11:53:16.201Z,2.94
2023-01-18T11:56:31.868Z,3.06
2023-01-18T11:59:38.075Z,3.00
2023-01-18T12:02:57.484Z,2.97
2023-01-18T12:06:05.785Z,3.07
2023-01-18T12:09:20.755Z,3.05
2023-01-18T12:12:42.120Z,3.01
2023-01-18T12:15:58.600Z,3.00
2023-01-18T12:19:19.927Z,2.92
2023-01-18T12:22:37.289Z,2.93
2023-01-18T12:26:11.633Z,2.93
2023-01-18T12:29:43.485Z,2.96
2023-01-18T12:33:02.725Z,2.86
2023-01-18T12:36:45.112Z,2.84
2023-01-18T12:40:00.970Z,2.87
2023-01-18T12:43:14.742Z,2.86
2023-01-18T12:46:22.412Z,2.91
2023-01-18T12:49:28.041Z,2.97
2023-01-18T12:52:36.066Z,2.97
2023-01-18T12:55:40.660Z,3.02
2023-01-18T12:58:44.605Z,3.02
2023-01-18T13:01:51.048Z,3.00
2023-01-18T13:04:56.321Z,3.01
2023-01-18T13:08:06.891Z,3.06
2023-01-18T13:11:12.595Z,3.01
2023-01-18T13:14:22.168Z,3.05
2023-01-18T13:17:29.774Z,3.02
2023-01-18T13:20:44.187Z,3.04
2023-01-18T13:23:54.649Z,3.04
2023-01-18T13:27:07.328Z,3.16
2023-01-18T13:30:17.545Z,3.09
2023-01-18T13:33:24.485Z,3.16
2023-01-18T13:36:26.023Z,3.18
2023-01-18T13:39:32.092Z,3.16
2023-01-18T13:42:37.275Z,3.13
2023-01-18T13:46:01.360Z,3.13
2023-01-18T13:49:37.683Z,3.05
2023-01-18T13:52:42.744Z,3.08
2023-01-18T13:55:49.252Z,3.11
2023-01-18T13:58:54.578Z,3.11
2023-01-18T14:02:07.610Z,3.07
2023-01-18T14:05:19.474Z,3.00
2023-01-18T14:08:25.016Z,3.02
2023-01-18T14:11:31.258Z,3.08
2023-01-18T14:14:36.077Z,3.09
2023-01-18T14:17:57.754Z,3.15
2023-01-18T14:21:25.679Z,3.15
2023-01-18T14:24:40.762Z,3.14
2023-01-18T14:27:47.339Z,3.18
2023-01-18T14:30:49.235Z,3.18
2023-01-18T14:33:52.095Z,3.11
2023-01-18T14:36:54.321Z,3.07
2023-01-18T14:40:22.077Z,3.10
2023-01-18T14:43:28.810Z,3.09
2023-01-18T14:46:30.523Z,3.09
2023-01-18T14:49:37.917Z,3.07
2023-01-18T14:52:39.303Z,3.05
2023-01-18T14:55:41.876Z,3.05
2023-01-18T14:58:51.757Z,3.07
2023-01-18T15:01:56.433Z,3.00
2023-01-18T15:05:11.786Z,3.01
2023-01-18T15:08:13.501Z,3.00
2023-01-18T15:11:17.178Z,2.94
2023-01-18T15:14:22.041Z,2.90
2023-01-18T15:17:27.442Z,2.89
2023-01-18T15:20:30.176Z,2.90
2023-01-18T15:23:40.549Z,2.90
2023-01-18T15:26:47.867Z,2.88
2023-01-18T15:29:53.100Z,2.88
2023-01-18T15:32:58.708Z,2.90
2023-01-18T15:36:06.493Z,2.83
2023-01-18T15:39:08.644Z,2.82
2023-01-18T15:42:12.813Z,2.78
2023-01-18T15:45:19.142Z,2.76
2023-01-18T15:48:23.312Z,2.77
2023-01-18T15:51:40.864Z,2.76
2023-01-18T15:54:42.729Z,2.73
2023-01-18T15:57:58.673Z,2.77
2023-01-18T16:01:04.566Z,2.72
2023-01-18T16:04:20.779Z,2.69
2023-01-18T16:07:42.531Z,2.61
2023-01-18T16:10:49.392Z,2.60
2023-01-18T16:13:58.070Z,2.55
2023-01-18T16:17:04.243Z,2.56
2023-01-18T16:20:17.216Z,2.54
2023-01-18T16:23:20.501Z,2.54
2023-01-18T16:26:32.706Z,2.54
2023-01-18T16:29:40.622Z,2.55
2023-01-18T16:32:44.620Z,2.53
2023-01-18T16:35:50.905Z,2.47
2023-01-18T16:38:52.183Z,2.43
2023-01-18T16:41:58.069Z,2.43
2023-01-18T16:45:00.641Z,2.45
2023-01-18T16:48:04.089Z,2.42
2023-01-18T16:51:14.262Z,2.41
2023-01-18T16:54:15.774Z,2.42
2023-01-18T16:57:21.264Z,2.34
2023-01-18T17:00:25.541Z,2.32
2023-01-18T17:03:28.905Z,2.38
2023-01-18T17:06:32.490Z,2.42
2023-01-18T17:09:47.345Z,2.34
2023-01-18T17:12:50.786Z,2.32
2023-01-18T17:15:53.047Z,2.26
2023-01-18T17:18:56.513Z,2.22
2023-01-18T17:21:57.954Z,2.20
2023-01-18T17:25:00.492Z,2.13
2023-01-18T17:28:02.137Z,2.11
2023-01-18T17:31:04.772Z,2.07
2023-01-18T17:34:06.785Z,2.04
2023-01-18T17:40:38.929Z,1.86
2023-01-18T17:43:42.760Z,1.91
2023-01-18T17:50:09.443Z,1.94
2023-01-18T17:53:10.811Z,2.00
2023-01-18T17:56:15.699Z,1.95
2023-01-18T17:59:17.010Z,1.89
2023-01-18T18:02:19.715Z,1.87
2023-01-18T18:05:21.689Z,1.87
2023-01-18T18:11:45.498Z,1.79
2023-01-18T18:14:51.760Z,1.80
2023-01-18T18:17:53.081Z,1.78
2023-01-18T18:20:59.117Z,1.72
2023-01-18T18:24:00.644Z,1.64
2023-01-18T18:27:03.358Z,1.61
2023-01-18T18:30:06.725Z,1.54
2023-01-18T18:33:08.024Z,1.52
2023-01-18T18:36:11.363Z,1.49
2023-01-18T18:39:13.932Z,1.43
2023-01-18T18:42:15.237Z,1.38
2023-01-18T18:45:17.958Z,1.30
2023-01-18T18:48:19.460Z,1.22
2023-01-18T18:51:23.047Z,1.17
2023-01-18T18:54:24.469Z,1.17
2023-01-18T18:57:29.450Z,1.14
2023-01-18T19:00:31.087Z,1.16
2023-01-18T19:03:34.188Z,1.10
2023-01-18T19:06:37.500Z,1.12
2023-01-18T19:09:40.072Z,1.10
2023-01-18T19:12:42.620Z,1.05
2023-01-18T19:15:47.506Z,1.02
2023-01-18T19:22:10.793Z,0.96
2023-01-18T19:25:13.587Z,0.94
2023-01-18T19:28:16.696Z,0.87
2023-01-18T19:31:19.670Z,0.82
2023-01-18T19:34:22.610Z,0.78
2023-01-18T19:37:25.061Z,0.76
2023-01-18T19:40:27.881Z,0.77
2023-01-18T19:43:29.228Z,0.73
2023-01-18T19:46:31.860Z,0.72
2023-01-18T19:49:47.957Z,0.66
2023-01-18T19:52:50.540Z,0.62
2023-01-18T19:56:06.504Z,0.57
2023-01-18T19:59:10.830Z,0.55
2023-01-18T20:02:13.578Z,0.54
2023-01-18T20:05:15.080Z,0.45
2023-01-18T20:08:18.850Z,0.39
2023-01-18T20:11:20.217Z,0.40
2023-01-18T20:14:28.257Z,0.40
2023-01-18T20:17:36.068Z,0.36
2023-01-18T20:20:37.565Z,0.32
2023-01-18T20:23:42.135Z,0.28
2023-01-18T20:26:43.554Z,0.27
2023-01-18T20:29:46.308Z,0.25
2023-01-18T20:32:48.950Z,0.23
2023-01-18T20:35:53.209Z,0.22
2023-01-18T20:38:57.577Z,0.22
2023-01-18T20:41:59.014Z,0.15
2023-01-18T20:45:00.412Z,0.10
2023-01-18T20:48:03.967Z,0.09
2023-01-18T20:51:06.674Z,0.06
2023-01-18T20:54:09.957Z,0.02
2023-01-18T20:57:13.997Z,0.02
2023-01-18T21:00:18.000Z,-0.02
2023-01-18T21:03:20.679Z,-0.06
2023-01-18T21:06:23.503Z,-0.09
2023-01-18T21:09:27.055Z,-0.14
2023-01-18T21:12:28.756Z,-0.16
2023-01-18T21:15:31.631Z,-0.17
2023-01-18T21:18:33.081Z,-0.22
2023-01-18T21:24:58.468Z,-0.29
2023-01-18T21:28:01.430Z,-0.28
2023-01-18T21:31:04.717Z,-0.36
2023-01-18T21:34:07.384Z,-0.41
2023-01-18T21:37:08.720Z,-0.41
2023-01-18T21:40:13.165Z,-0.45
2023-01-18T21:43:36.010Z,-0.48
2023-01-18T21:46:38.632Z,-0.53
2023-01-18T21:53:38.912Z,-0.60
2023-01-18T21:56:42.450Z,-0.59
2023-01-18T21:59:44.367Z,-0.68
2023-01-18T22:02:48.231Z,-0.68
2023-01-18T22:05:50.866Z,-0.71
2023-01-18T22:08:53.446Z,-0.71
2023-01-18T22:11:57.793Z,-0.71
2023-01-18T22:15:02.423Z,-0.73
2023-01-18T22:18:05.546Z,-0.73
2023-01-18T22:21:06.849Z,-0.74
2023-01-18T22:24:09.563Z,-0.74
2023-01-18T22:27:12.812Z,-0.78
2023-01-18T22:30:14.235Z,-0.80
2023-01-18T22:33:16.821Z,-0.78
2023-01-18T22:36:18.150Z,-0.86
2023-01-18T22:39:20.684Z,-0.89
2023-01-18T22:42:23.021Z,-0.89
2023-01-18T22:45:25.598Z,-0.90
2023-01-18T22:48:27.317Z,-0.91
2023-01-18T22:51:29.869Z,-0.91
2023-01-18T22:54:31.217Z,-0.97
2023-01-18T22:57:34.419Z,-0.99
2023-01-18T23:00:35.731Z,-0.99
2023-01-18T23:03:38.322Z,-0.98
2023-01-18T23:06:44.835Z,-1.02
2023-01-18T23:09:47.432Z,-1.05
2023-01-18T23:12:51.848Z,-1.07
2023-01-18T23:16:13.045Z,-1.08
2023-01-18T23:19:15.720Z,-1.06
2023-01-18T23:22:17.045Z,-1.10
2023-01-18T23:25:19.720Z,-1.09
2023-01-18T23:28:26.790Z,-1.08
2023-01-18T23:31:29.455Z,-1.10
2023-01-18T23:34:32.091Z,-1.13
2023-01-18T23:37:36.111Z,-1.17
2023-01-18T23:40:56.984Z,-1.20
2023-01-18T23:44:18.679Z,-1.25
2023-01-18T23:47:37.836Z,-1.26
2023-01-18T23:50:58.391Z,-1.28
2023-01-18T23:54:15.686Z,-1.32
2023-01-18T23:57:18.218Z,-1.36
